^^
Station Historical Data
 
Daily Summary for June 23, 2017 Units:  English    Metric   Both
« Previous Day
Next Day »
Daily Weekly Monthly Yearly Custom
  Current: High: Low: Average:
Temperature: 84.6 °F 91.8 °F 84.6 °F 87.3 °F
Dew Point: 60.3 °F 60.6 °F 59.4 °F 60.3 °F
Humidity: 44 % 44 % 35 % 40 %
Wind Speed: 1.2 mph 3.5 mph 0 mph 1.7 mph
Wind Gust: 1.2 mph 3.5 mph - -
Wind:North - - NNW
Pressure: 29.6 in 29.6 in 29.6 in -
Precipitation: 0 in      
Historical Graphs
 
 
Tabular Data for June 23, 2017
Time Temperature Dew Point Pressure Wind Wind Speed Wind Gust Humidity Rainfall Rate (Hourly) solar Conditions
00:02 91.8 °F 60.3 °F 29.6 in NW 2.3 mph 2.3 mph 35 % 0 in 0.0 W/m2 CLR
00:07 91.4 °F 60.6 °F 29.6 in NW 1.2 mph 1.2 mph 36 % 0 in 0.0 W/m2 CLR
00:12 91.2 °F 60.4 °F 29.6 in NW 2.3 mph 2.3 mph 36 % 0 in 0.0 W/m2 CLR
00:17 91 °F 60.3 °F 29.6 in NNW 2.3 mph 2.3 mph 36 % 0 in 0.0 W/m2 CLR
00:22 90.9 °F 60.3 °F 29.6 in NNW 2.3 mph 2.3 mph 36 % 0 in 0.0 W/m2 CLR
00:27 90.7 °F 60.1 °F 29.6 in West 1.2 mph 1.2 mph 36 % 0 in 0.0 W/m2 CLR
00:32 90.5 °F 59.9 °F 29.6 in NW 1.2 mph 1.2 mph 36 % 0 in 0.0 W/m2 CLR
00:37 90.3 °F 60.4 °F 29.6 in NNW 1.2 mph   37 % 0 in 0.0 W/m2 CLR
00:42 90 °F 60.3 °F 29.6 in NNW 3.5 mph 3.5 mph 37 % 0 in 0.0 W/m2 CLR
00:47 90 °F 60.1 °F 29.6 in NNW 2 mph 2 mph 37 % 0 in 0.0 W/m2 CLR
00:52 89.8 °F 60.1 °F 29.6 in North 2 mph 2 mph 37 % 0 in 0.0 W/m2 CLR
00:57 89.4 °F 60.4 °F 29.6 in North 1.2 mph 1.2 mph 38 % 0 in 0.0 W/m2 CLR
01:02 89.2 °F 60.4 °F 29.6 in North 2.3 mph 2.3 mph 38 % 0 in 0.0 W/m2 CLR
01:07 89.1 °F 60.3 °F 29.6 in North 2.3 mph 2.3 mph 38 % 0 in 0.0 W/m2 CLR
01:12 89.1 °F 60.1 °F 29.6 in North 3.5 mph 3.5 mph 38 % 0 in 0.0 W/m2 CLR
01:17 88.9 °F 59.9 °F 29.6 in North 1.2 mph 1.2 mph 38 % 0 in 0.0 W/m2 CLR
01:22 88.7 °F 59.7 °F 29.6 in North 1.2 mph 1.2 mph 38 % 0 in 0.0 W/m2 CLR
01:27 88.5 °F 59.7 °F 29.6 in North 2.3 mph 2.3 mph 38 % 0 in 0.0 W/m2 CLR
01:32 88.3 °F 60.3 °F 29.6 in North 1.2 mph 1.2 mph 39 % 0 in 0.0 W/m2 CLR
01:37 88.2 °F 60.1 °F 29.6 in North 1.2 mph 1.2 mph 39 % 0 in 0.0 W/m2 CLR
01:42 88 °F 59.9 °F 29.6 in NNW 3.5 mph 3.5 mph 39 % 0 in 0.0 W/m2 CLR
01:44 88 °F 59.7 °F 29.6 in North 3.5 mph 3.5 mph 39 % 0 in 0.0 W/m2 CLR
01:49 87.8 °F 60.4 °F 29.6 in North 3.5 mph 3.5 mph 40 % 0 in 0.0 W/m2 CLR
01:54 87.6 °F 60.3 °F 29.6 in North 2.3 mph 2.3 mph 40 % 0 in 0.0 W/m2 CLR
01:59 87.6 °F 60.3 °F 29.6 in North 1.2 mph 1.2 mph 40 % 0 in 0.0 W/m2 CLR
02:04 87.4 °F 60.3 °F 29.6 in North 2.3 mph 2.3 mph 40 % 0 in 0.0 W/m2 CLR
02:09 87.3 °F 60.1 °F 29.6 in North 1.2 mph 1.2 mph 40 % 0 in 0.0 W/m2 CLR
02:14 87.3 °F 59.9 °F 29.6 in North 1.2 mph 1.2 mph 40 % 0 in 0.0 W/m2 CLR
02:19 87.1 °F 60.4 °F 29.6 in Calm     41 % 0 in 0.0 W/m2 CLR
02:24 87.1 °F 60.4 °F 29.6 in NNW 2.3 mph 2.3 mph 41 % 0 in 0.0 W/m2 CLR
02:29 86.9 °F 60.4 °F 29.6 in NNW 1.2 mph   41 % 0 in 0.0 W/m2 CLR
02:34 86.9 °F 60.4 °F 29.6 in NNW 1.2 mph 1.2 mph 41 % 0 in 0.0 W/m2 CLR
02:39 86.7 °F 60.3 °F 29.6 in Calm     41 % 0 in 0.0 W/m2 CLR
02:44 86.7 °F 60.3 °F 29.6 in NNW 1.2 mph 1.2 mph 41 % 0 in 0.0 W/m2 CLR
02:49 86.7 °F 60.3 °F 29.6 in NNW 1.2 mph 1.2 mph 41 % 0 in 0.0 W/m2 CLR
02:54 86.5 °F 60.1 °F 29.6 in NNW 1.2 mph 1.2 mph 41 % 0 in 0.0 W/m2 CLR
02:59 86.4 °F 59.9 °F 29.6 in NNW 1.2 mph 1.2 mph 41 % 0 in 0.0 W/m2 CLR
03:04 86.2 °F 59.7 °F 29.6 in NNW 1.2 mph 1.2 mph 41 % 0 in 0.0 W/m2 CLR
03:09 86 °F 59.5 °F 29.6 in NNW 2.3 mph 2.3 mph 41 % 0 in 0.0 W/m2 CLR
03:14 85.8 °F 59.4 °F 29.6 in NNW 1.2 mph 1.2 mph 41 % 0 in 0.0 W/m2 CLR
03:19 85.6 °F 60.1 °F 29.6 in North 2.3 mph 2.3 mph 42 % 0 in 0.0 W/m2 CLR
03:24 85.6 °F 59.9 °F 29.6 in NNW 1.2 mph 1.2 mph 42 % 0 in 0.0 W/m2 CLR
03:29 85.5 °F 59.7 °F 29.6 in NNW 1.2 mph 1.2 mph 42 % 0 in 0.0 W/m2 CLR
03:34 85.5 °F 60.4 °F 29.6 in NNW 1.2 mph 1.2 mph 43 % 0 in 0.0 W/m2 CLR
03:39 85.3 °F 60.3 °F 29.6 in NNW 2.3 mph 2.3 mph 43 % 0 in 0.0 W/m2 CLR
03:44 85.1 °F 60.1 °F 29.6 in NNW 1.2 mph 1.2 mph 43 % 0 in 0.0 W/m2 CLR
03:50 84.9 °F 60.1 °F 29.6 in North 1.2 mph 1.2 mph 43 % 0 in 0.0 W/m2 CLR
03:51 84.9 °F 60.1 °F 29.6 in North 2.3 mph 2.3 mph 43 % 0 in 0.0 W/m2 CLR
03:56 84.9 °F 60.6 °F 29.6 in North 1.2 mph 1.2 mph 44 % 0 in 0.0 W/m2 CLR
04:01 84.9 °F 60.6 °F 29.6 in North 1.2 mph 1.2 mph 44 % 0 in 0.0 W/m2 CLR
04:06 84.7 °F 60.4 °F 29.6 in North 2.3 mph 2.3 mph 44 % 0 in 0.0 W/m2 CLR
04:10 84.9 °F 60.6 °F 29.6 in North 1.2 mph 1.2 mph 44 % 0 in 0.0 W/m2 CLR
04:15 84.9 °F 60.6 °F 29.6 in North 1.2 mph 1.2 mph 44 % 0 in 0.0 W/m2 CLR
04:20 84.9 °F 60.6 °F 29.6 in North 1.2 mph 1.2 mph 44 % 0 in 0.0 W/m2 CLR
04:25 84.9 °F 60.6 °F 29.6 in North 2.3 mph 2.3 mph 44 % 0 in 0.0 W/m2 CLR
04:30 84.9 °F 60.6 °F 29.6 in North 2.3 mph 2.3 mph 44 % 0 in 0.0 W/m2 CLR
04:35 84.9 °F 60.6 °F 29.6 in North 1 mph   44 % 0 in 0.0 W/m2 CLR
04:40 84.7 °F 60.4 °F 29.6 in North 1 mph 1 mph 44 % 0 in 0.0 W/m2 CLR
04:45 84.7 °F 60.4 °F 29.6 in North 1.2 mph 1.2 mph 44 % 0 in 0.0 W/m2 CLR
04:50 84.7 °F 60.4 °F 29.6 in North 1.2 mph 1.2 mph 44 % 0 in 0.0 W/m2 CLR
04:55 84.6 °F 60.3 °F 29.6 in North 1.2 mph 1.2 mph 44 % 0 in 0.0 W/m2 CLR
Countryside Manor, Tucson, AZ, USA
Compliments of Weather Underground - 3.25 mb